Main page
METAR-TAF:

METAR-TAF

Airports :

Logroño, Spain

Logroño–Agoncillo Airport

latitude: 42-27N, longitude: 002-20W, elevation: 353 m

Current weather observation

The report was made 36 minutes ago, at 14:00 UTC
Wind 9 kt from the West/Northwest, varying between West/Southwest and North
Temperature 20°C
Humidity 60%
Pressure 1020 hPa
Visibility 10 km or more
Broken clouds at a height of 3300 ft

METAR: LELO 251400Z 29009KT 250V350 9999 BKN033 20/12 Q1020

Time: 16:36 (14:36 UTC)

Forecast

The report was made 36 minutes ago, at 14:00 UTC
Forecast valid from 25 at 15 UTC to 25 at 24 UTC
Wind 12 kt from the West/Northwest
Visibility 10 km or more
Broken clouds at a height of 3500 ft

TAF: LELO 251400Z 2515/2524 30012KT 9999 BKN035

Weather observations and forecasts of more than 4000 airports (METAR and TAF reports).

The available stations are represented by yellow and red dots on the map.

Hover mouse over dot to see the name of the station.

Then click to see weather observations and forecasts.

To change the map : click on the green buttons with a black cross to zoom in, on the green button with a dash to zoom out, or on the green arrows for adjacent maps.


METAR-TAF: